createdAt,value
2017-10-12T00:04:43.682Z,1009.1
2017-10-12T00:09:49.465Z,1009.1
2017-10-12T00:14:54.899Z,1009
2017-10-12T00:20:00.332Z,1008.8
2017-10-12T00:25:05.073Z,1008.8
2017-10-12T00:30:09.817Z,1008.7
2017-10-12T00:35:15.594Z,1008.7
2017-10-12T00:40:21.030Z,1008.5
2017-10-12T00:45:26.456Z,1008.4
2017-10-12T00:50:31.543Z,1008.4
2017-10-12T00:55:36.979Z,1008.5
2017-10-12T01:00:42.753Z,1008.6
2017-10-12T01:05:46.809Z,1008.5
2017-10-12T02:23:01.451Z,1008.3
2017-10-12T02:28:07.232Z,1008.4
2017-10-12T02:33:12.655Z,1008.3
2017-10-12T02:38:18.435Z,1008.4
2017-10-12T02:43:24.214Z,1008.3
2017-10-12T02:48:28.953Z,1008.3
2017-10-12T02:53:34.035Z,1008.3
2017-10-12T02:58:39.331Z,1008.3
2017-10-12T03:03:44.419Z,1008.2
2017-10-12T03:08:49.161Z,1008.2
2017-10-12T03:13:53.913Z,1008.2
2017-10-12T03:18:58.648Z,1008.3
2017-10-12T03:24:04.426Z,1008.3
2017-10-12T03:29:09.168Z,1008.3
2017-10-12T03:34:13.570Z,1008.4
2017-10-12T03:39:18.996Z,1008.4
2017-10-12T03:44:24.423Z,1008.5
2017-10-12T03:49:29.855Z,1008.4
2017-10-12T03:54:34.940Z,1008.4
2017-10-12T03:59:39.679Z,1008.4
2017-10-12T04:04:45.106Z,1008.5
2017-10-12T04:09:50.533Z,1008.5
2017-10-12T04:14:55.620Z,1008.5
2017-10-12T04:20:01.057Z,1008.5
2017-10-12T04:25:06.840Z,1008.6
2017-10-12T04:30:11.937Z,1008.7
2017-10-12T04:35:17.359Z,1008.8
2017-10-12T04:40:22.495Z,1008.9
2017-10-12T04:45:27.927Z,1008.9
2017-10-12T04:50:33.037Z,1009.1
2017-10-12T04:55:38.334Z,1009
2017-10-12T05:00:43.757Z,1009
2017-10-12T05:05:49.534Z,1009.1
2017-10-12T05:10:54.622Z,1009.1
2017-10-12T05:16:00.072Z,1009.1
2017-10-12T05:21:05.174Z,1009.2
2017-10-12T05:26:10.957Z,1009.3
2017-10-12T05:31:15.362Z,1009.4
2017-10-12T05:36:20.792Z,1009.4
2017-10-12T05:41:26.221Z,1009.5
2017-10-12T05:46:30.960Z,1009.6
2017-10-12T05:51:36.054Z,1009.7
2017-10-12T05:56:41.881Z,1009.9
2017-10-12T06:01:47.310Z,1009.9
2017-10-12T06:06:52.746Z,1010
2017-10-12T06:11:57.145Z,1010.1
2017-10-12T06:17:01.892Z,1010.3
2017-10-12T06:22:06.637Z,1010.3
2017-10-12T06:27:12.415Z,1010.2
2017-10-12T06:32:17.843Z,1010.4
2017-10-12T06:37:23.975Z,1010.5
2017-10-12T06:42:29.059Z,1010.6
2017-10-12T06:47:33.469Z,1010.7
2017-10-12T06:52:38.904Z,1010.8
2017-10-12T06:57:43.994Z,1010.8
2017-10-12T07:02:49.089Z,1011
2017-10-12T07:07:53.488Z,1011
2017-10-12T07:12:58.921Z,1011
2017-10-12T07:18:04.354Z,1011.2
2017-10-12T07:23:09.451Z,1011.3
2017-10-12T07:28:14.887Z,1011.5
2017-10-12T07:33:20.322Z,1011.6
2017-10-12T07:38:25.413Z,1011.7
2017-10-12T07:43:30.159Z,1011.8
2017-10-12T07:48:34.904Z,1011.7
2017-10-12T07:53:40.697Z,1011.9
2017-10-12T07:58:45.440Z,1012
2017-10-12T08:03:50.540Z,1012
2017-10-12T08:08:54.939Z,1012
2017-10-12T08:14:00.372Z,1012.2
2017-10-12T08:19:05.471Z,1012.2
2017-10-12T08:24:10.573Z,1012.3
2017-10-12T08:29:16.019Z,1012.5
2017-10-12T08:34:21.802Z,1012.5
2017-10-12T08:39:27.585Z,1012.7
2017-10-12T08:44:33.374Z,1012.7
2017-10-12T08:49:38.462Z,1012.9
2017-10-12T08:54:43.554Z,1013
2017-10-12T08:59:48.653Z,1013
2017-10-12T09:04:53.405Z,1013.2
2017-10-12T09:09:58.847Z,1013.3
2017-10-12T09:15:04.282Z,1013.4
2017-10-12T09:20:09.407Z,1013.5
2017-10-12T09:25:15.539Z,1013.6
2017-10-12T09:30:20.849Z,1013.6
2017-10-12T09:35:26.988Z,1013.6
2017-10-12T09:40:31.384Z,1013.8
2017-10-12T09:45:37.192Z,1013.9
2017-10-12T09:50:42.302Z,1014.1
2017-10-12T09:55:48.113Z,1014.1
2017-10-12T10:00:53.560Z,1014.2
2017-10-12T10:05:59.341Z,1014.4
2017-10-12T10:11:04.782Z,1014.4
2017-10-12T10:16:10.266Z,1014.4
2017-10-12T10:21:15.717Z,1014.6
2017-10-12T10:26:21.153Z,1014.8
2017-10-12T10:31:26.250Z,1014.7
2017-10-12T10:36:31.354Z,1014.9
2017-10-12T10:41:36.793Z,1015.1
2017-10-12T10:46:42.689Z,1015.1
2017-10-12T10:51:48.127Z,1015.1
2017-10-12T10:56:53.564Z,1015.3
2017-10-12T11:01:58.665Z,1015.2
2017-10-12T11:07:04.105Z,1015.3
2017-10-12T11:12:08.933Z,1015.5
2017-10-12T11:17:14.019Z,1015.4
2017-10-12T11:22:18.772Z,1015.5
2017-10-12T11:27:24.756Z,1015.6
2017-10-12T11:32:29.887Z,1015.6
2017-10-12T11:37:35.320Z,1015.7
2017-10-12T11:42:40.758Z,1015.8
2017-10-12T11:47:46.199Z,1015.9
2017-10-12T11:52:51.287Z,1015.9
2017-10-12T11:57:55.352Z,1016
2017-10-12T12:03:00.790Z,1016
2017-10-12T12:08:05.890Z,1016.2
2017-10-12T12:13:10.986Z,1016.4
2017-10-12T12:18:15.740Z,1016.4
2017-10-12T12:23:21.181Z,1016.6
2017-10-12T12:28:26.970Z,1016.6
2017-10-12T12:33:31.370Z,1016.7
2017-10-12T12:38:36.118Z,1016.7
2017-10-12T12:43:41.208Z,1016.7
2017-10-12T12:48:46.655Z,1016.8
2017-10-12T12:53:52.433Z,1016.9
2017-10-12T12:58:57.874Z,1016.8
2017-10-12T13:04:03.652Z,1017
2017-10-12T13:09:09.088Z,1017.1
2017-10-12T13:14:14.519Z,1017.2
2017-10-12T13:19:19.960Z,1017.1
2017-10-12T13:24:25.401Z,1017.2
2017-10-12T13:29:31.531Z,1017.3
2017-10-12T13:34:36.972Z,1017.3
2017-10-12T13:39:42.063Z,1017.5
2017-10-12T13:44:46.810Z,1017.5
2017-10-12T13:49:52.244Z,1017.6
2017-10-12T13:54:56.999Z,1017.6
2017-10-12T14:00:02.433Z,1017.6
2017-10-12T14:05:07.931Z,1017.7
2017-10-12T14:10:12.684Z,1017.7
2017-10-12T14:15:17.433Z,1017.7
2017-10-12T14:20:22.521Z,1017.8
2017-10-12T14:25:27.958Z,1017.8
2017-10-12T14:30:33.395Z,1017.9
2017-10-12T14:35:39.203Z,1018
2017-10-12T14:40:44.295Z,1018
2017-10-12T14:45:49.393Z,1018
2017-10-12T14:50:54.833Z,1018.1
2017-10-12T14:56:00.268Z,1018.1
2017-10-12T15:01:05.367Z,1018.2
2017-10-12T15:06:11.492Z,1018.3
2017-10-12T15:11:15.893Z,1018.4
2017-10-12T15:16:20.988Z,1018.4
2017-10-12T15:21:26.077Z,1018.4
2017-10-12T15:26:31.375Z,1018.5
2017-10-12T15:31:37.498Z,1018.5
2017-10-12T15:36:42.935Z,1018.6
2017-10-12T15:41:47.734Z,1018.6
2017-10-12T15:46:53.171Z,1018.6
2017-10-12T15:51:58.376Z,1018.8
2017-10-12T15:57:04.159Z,1018.8
2017-10-12T16:02:41.072Z,1018.9
2017-10-12T16:07:46.255Z,1018.9
2017-10-12T16:12:51.705Z,1019
2017-10-12T16:17:57.352Z,1019
2017-10-12T16:23:03.185Z,1019.1
2017-10-12T16:28:08.271Z,1019.2
2017-10-12T16:33:14.431Z,1019.1
2017-10-12T16:38:19.570Z,1019.2
2017-10-12T16:43:25.349Z,1019.2
2017-10-12T16:48:30.442Z,1019.3
2017-10-12T16:53:35.274Z,1019.2
2017-10-12T16:58:40.749Z,1019.3
2017-10-12T17:03:45.491Z,1019.3
2017-10-12T17:08:51.274Z,1019.5
2017-10-12T17:13:56.713Z,1019.5
2017-10-12T17:19:02.163Z,1019.6
2017-10-12T17:24:07.601Z,1019.6
2017-10-12T17:29:12.695Z,1019.6
2017-10-12T17:34:18.128Z,1019.6
2017-10-12T17:39:23.094Z,1019.6
2017-10-12T17:44:28.885Z,1019.6
2017-10-12T17:49:34.323Z,1019.5
2017-10-12T17:54:39.089Z,1019.7
2017-10-12T17:59:44.532Z,1019.8
2017-10-12T18:04:50.207Z,1019.8
2017-10-12T18:09:54.655Z,1019.9
2017-10-12T18:14:59.797Z,1019.9
2017-10-12T18:20:05.585Z,1019.9
2017-10-12T18:25:10.686Z,1020
2017-10-12T18:30:16.117Z,1020
2017-10-12T18:35:21.208Z,1020.1
2017-10-12T18:40:25.961Z,1020.2
2017-10-12T18:45:30.709Z,1020.3
2017-10-12T18:50:36.834Z,1020.3
2017-10-12T18:55:41.237Z,1020.3
2017-10-12T19:00:46.337Z,1020.3
2017-10-12T19:05:51.775Z,1020.3
2017-10-12T19:10:56.868Z,1020.4
2017-10-12T19:16:01.617Z,1020.3
2017-10-12T19:21:07.056Z,1020.4
2017-10-12T19:26:12.146Z,1020.5
2017-10-12T19:31:17.240Z,1020.5
2017-10-12T19:36:23.365Z,1020.5
2017-10-12T19:41:29.204Z,1020.6
2017-10-12T19:46:34.640Z,1020.6
2017-10-12T19:51:39.733Z,1020.6
2017-10-12T19:56:45.173Z,1020.6
2017-10-12T20:01:49.578Z,1020.6
2017-10-12T20:06:55.018Z,1020.7
2017-10-12T20:12:00.111Z,1020.7
2017-10-12T20:17:05.221Z,1020.7
2017-10-12T20:22:10.324Z,1020.8
2017-10-12T20:27:15.067Z,1020.9
2017-10-12T20:32:20.864Z,1020.9
2017-10-12T20:37:25.964Z,1020.9
2017-10-12T20:42:31.421Z,1021
2017-10-12T20:47:37.203Z,1021.1
2017-10-12T20:52:42.296Z,1021
2017-10-12T20:57:48.083Z,1021
2017-10-12T21:02:53.518Z,1021
2017-10-12T21:07:58.271Z,1021
2017-10-12T21:13:03.375Z,1021
2017-10-12T21:18:08.675Z,1021.2
2017-10-12T21:23:14.464Z,1021
2017-10-12T21:28:19.928Z,1021.1
2017-10-12T21:33:25.359Z,1021.2
2017-10-12T21:38:30.809Z,1021.1
2017-10-12T21:43:36.231Z,1021.2
2017-10-12T21:48:41.318Z,1021.1
2017-10-12T21:53:46.745Z,1021.1
2017-10-12T21:58:51.486Z,1021.1
2017-10-12T22:03:57.265Z,1021
2017-10-12T22:09:02.353Z,1021.1
2017-10-12T22:14:08.125Z,1021.1
2017-10-12T22:19:13.213Z,1021.2
2017-10-12T22:24:18.991Z,1021.1
2017-10-12T22:29:25.112Z,1021
2017-10-12T22:34:29.862Z,1021
2017-10-12T22:39:34.264Z,1020.9
2017-10-12T22:44:39.351Z,1020.9
2017-10-12T22:49:44.097Z,1020.9
2017-10-12T22:54:49.530Z,1021
2017-10-12T22:59:55.305Z,1021
2017-10-12T23:05:00.389Z,1020.9
2017-10-12T23:10:05.130Z,1020.9
2017-10-12T23:15:09.873Z,1021
2017-10-12T23:20:14.612Z,1021.1
2017-10-12T23:25:19.696Z,1021.1
2017-10-12T23:30:24.788Z,1021.1
2017-10-12T23:35:30.560Z,1021.2
2017-10-12T23:40:35.645Z,1021.3
2017-10-12T23:45:40.730Z,1021.3
2017-10-12T23:50:46.158Z,1021.3
2017-10-12T23:55:51.591Z,1021.4
